Time;durP1;ratioP1;P1;durP2;ratioP2;P2;SDS_P1;SDS_P2;PMS_P1;PMS_P2;Temp;Humidity;BMP_temperature;BMP_pressure;BME280_temperature;BME280_humidity;BME280_pressure;Samples;Min_cycle;Max_cycle;Signal;HPM_P1;HPM_P2
2022/04/11 00:01:28;;;;;;;1.75;1.52;;;;;;;7.27;72.81;99041.03;5050884;28;20076;-45
2022/04/11 00:03:54;;;;;;;2.30;1.80;;;;;;;7.25;74.12;99051.81;5050258;28;20365;-47
2022/04/11 00:06:19;;;;;;;2.00;1.80;;;;;;;7.28;74.17;99054.09;5050418;28;20052;-47
2022/04/11 00:08:45;;;;;;;1.80;1.65;;;;;;;7.28;73.75;99062.03;5049772;28;20396;-48
2022/04/11 00:11:10;;;;;;;2.90;1.83;;;;;;;7.26;74.12;99066.72;5050326;28;20138;-46
2022/04/11 00:13:35;;;;;;;1.80;1.65;;;;;;;7.33;73.79;99075.50;5050355;28;20097;-45
2022/04/11 00:16:01;;;;;;;1.92;1.70;;;;;;;7.04;74.41;99027.16;5050256;28;20021;-45
2022/04/11 00:18:26;;;;;;;2.38;1.75;;;;;;;7.34;73.19;99065.72;5050627;28;20509;-45
2022/04/11 00:20:52;;;;;;;1.92;1.70;;;;;;;7.26;73.30;99074.66;5052334;28;20136;-46
2022/04/11 00:23:18;;;;;;;2.42;1.90;;;;;;;7.34;73.54;99078.94;5054463;28;20020;-45
2022/04/11 00:25:44;;;;;;;3.88;1.73;;;;;;;7.17;73.78;99071.34;5054618;28;20071;-49
2022/04/11 00:28:09;;;;;;;1.85;1.60;;;;;;;7.15;73.14;99080.50;5054384;28;20044;-46
2022/04/11 00:30:35;;;;;;;1.95;1.80;;;;;;;7.31;72.88;99084.63;5054312;28;20504;-46
2022/04/11 00:33:01;;;;;;;2.03;1.80;;;;;;;7.32;73.05;99063.25;5054156;28;20021;-46
2022/04/11 00:35:26;;;;;;;2.60;1.92;;;;;;;7.60;72.10;99088.81;5054076;28;20028;-46
2022/04/11 00:37:52;;;;;;;2.75;2.15;;;;;;;7.37;72.27;99086.50;5054218;28;20044;-45
2022/04/11 00:40:17;;;;;;;2.92;2.40;;;;;;;7.12;73.46;99091.47;5053830;28;20468;-45
2022/04/11 00:42:43;;;;;;;3.13;2.50;;;;;;;7.14;73.30;99094.72;5053939;28;20027;-47
2022/04/11 00:45:09;;;;;;;3.20;2.60;;;;;;;7.00;73.67;99101.78;5054016;28;20347;-45
2022/04/11 00:47:34;;;;;;;5.30;3.10;;;;;;;7.16;72.64;99106.78;5054052;28;20025;-46
2022/04/11 00:50:04;;;;;;;3.53;2.80;;;;;;;7.15;72.63;99115.72;5054011;28;20032;-46
2022/04/11 00:52:31;;;;;;;3.17;2.50;;;;;;;7.22;72.97;99121.06;5053387;28;20024;-46
2022/04/11 00:54:58;;;;;;;3.08;2.60;;;;;;;7.11;72.52;99114.47;5053566;28;20052;-46
2022/04/11 00:57:23;;;;;;;5.22;2.35;;;;;;;7.19;72.07;99121.44;5053830;28;20028;-47
2022/04/11 00:59:50;;;;;;;3.33;2.50;;;;;;;7.26;72.06;99127.59;5053787;28;20098;-49
2022/04/11 01:02:15;;;;;;;3.00;2.30;;;;;;;7.39;72.35;99126.81;5053550;28;20194;-48
2022/04/11 01:04:41;;;;;;;2.70;2.30;;;;;;;7.39;72.22;99134.78;5053628;28;20024;-47
2022/04/11 01:07:08;;;;;;;3.75;1.95;;;;;;;7.54;71.54;99129.31;5053479;28;20110;-50
2022/04/11 01:09:34;;;;;;;2.20;1.98;;;;;;;7.61;70.81;99130.16;5053499;28;20508;-46
2022/04/11 01:12:01;;;;;;;2.88;2.05;;;;;;;7.48;71.63;99138.03;5053192;28;20123;-47
2022/04/11 01:14:27;;;;;;;2.03;1.83;;;;;;;7.30;72.65;99147.34;5053023;28;20104;-48
2022/04/11 01:16:52;;;;;;;2.38;2.10;;;;;;;7.43;71.09;99142.09;5053437;28;20479;-46
2022/04/11 01:19:19;;;;;;;2.30;2.10;;;;;;;7.35;72.17;99147.56;5053266;28;20036;-48
2022/04/11 01:21:46;;;;;;;2.70;1.90;;;;;;;7.36;71.98;99153.69;5053142;28;20560;-49
2022/04/11 01:24:11;;;;;;;2.40;1.90;;;;;;;7.37;71.75;99153.50;5052619;28;20033;-46
2022/04/11 01:26:37;;;;;;;2.78;1.80;;;;;;;7.33;71.53;99157.53;5052993;28;20036;-47
2022/04/11 01:29:04;;;;;;;2.10;1.90;;;;;;;7.37;70.64;99161.44;5052938;28;20099;-46
2022/04/11 01:31:30;;;;;;;2.85;1.88;;;;;;;7.39;70.77;99166.53;5052933;28;20078;-46
2022/04/11 01:33:57;;;;;;;3.17;2.10;;;;;;;7.47;70.75;99170.84;5052947;28;20431;-46
2022/04/11 01:36:22;;;;;;;2.75;2.28;;;;;;;7.46;71.46;99162.06;5052775;28;20057;-46
2022/04/11 01:38:48;;;;;;;2.55;2.03;;;;;;;7.42;70.61;99164.31;5052879;28;20102;-46
2022/04/11 01:41:13;;;;;;;2.42;2.10;;;;;;;7.58;70.29;99178.22;5053212;28;20055;-46
2022/04/11 01:43:39;;;;;;;2.10;1.75;;;;;;;7.60;69.65;99176.19;5052491;28;20394;-45
2022/04/11 01:46:04;;;;;;;2.60;1.88;;;;;;;7.38;70.58;99178.94;5052157;28;20354;-46
2022/04/11 01:48:30;;;;;;;3.22;2.38;;;;;;;7.46;70.57;99175.31;5053013;28;20104;-49
2022/04/11 01:50:55;;;;;;;2.92;2.20;;;;;;;7.41;71.03;99189.13;5052587;28;20106;-47
2022/04/11 01:53:21;;;;;;;2.30;2.10;;;;;;;7.29;71.53;99184.59;5052985;28;20419;-49
2022/04/11 01:55:47;;;;;;;2.42;2.10;;;;;;;7.44;71.73;99180.81;5052287;28;20469;-46
2022/04/11 01:58:14;;;;;;;2.50;2.05;;;;;;;7.33;71.45;99194.59;5052310;28;20415;-45
2022/04/11 02:00:40;;;;;;;3.00;2.40;;;;;;;7.46;71.33;99201.78;5052665;28;20035;-46
2022/04/11 02:03:07;;;;;;;2.67;2.20;;;;;;;7.38;71.47;99197.47;5052693;28;20032;-45
2022/04/11 02:05:33;;;;;;;2.65;2.35;;;;;;;7.51;71.13;99194.06;5052483;28;20033;-47
2022/04/11 02:08:00;;;;;;;2.58;2.30;;;;;;;7.43;71.12;99210.94;5052129;28;20093;-46
2022/04/11 02:10:26;;;;;;;3.15;2.30;;;;;;;7.57;70.70;99217.09;5052434;28;20483;-46
2022/04/11 02:12:52;;;;;;;2.65;2.22;;;;;;;7.70;70.60;99226.13;5052691;28;20104;-46
2022/04/11 02:15:18;;;;;;;3.15;2.45;;;;;;;7.56;71.37;99214.69;5052448;28;20116;-47
2022/04/11 02:17:46;;;;;;;2.58;2.30;;;;;;;7.67;70.47;99235.28;5051972;28;20105;-46
2022/04/11 02:20:12;;;;;;;2.75;2.00;;;;;;;7.60;71.22;99235.25;5052167;28;20116;-47
2022/04/11 02:22:48;;;;;;;3.75;2.35;;;;;;;7.53;72.34;99241.53;5052224;28;20036;-47
2022/04/11 02:25:14;;;;;;;3.20;2.40;;;;;;;7.83;70.44;99240.25;5051971;28;20052;-47
2022/04/11 02:27:40;;;;;;;2.83;2.35;;;;;;;7.89;69.44;99253.72;5051454;28;20104;-47
2022/04/11 02:30:06;;;;;;;2.38;2.17;;;;;;;7.41;70.48;99257.16;5051787;28;20176;-49
2022/04/11 02:32:32;;;;;;;2.88;2.38;;;;;;;7.52;70.33;99261.06;5052045;28;20058;-45
2022/04/11 02:34:57;;;;;;;3.28;2.50;;;;;;;7.27;71.29;99263.38;5051853;28;20074;-47
2022/04/11 02:37:23;;;;;;;4.03;2.78;;;;;;;7.50;71.02;99271.88;5051799;28;20083;-49
2022/04/11 02:39:48;;;;;;;2.92;2.40;;;;;;;7.31;71.31;99280.50;5051618;28;20552;-47
2022/04/11 02:42:24;;;;;;;2.97;2.40;;;;;;;7.12;72.58;99285.47;5051733;28;20024;-48
2022/04/11 02:44:50;;;;;;;2.92;2.33;;;;;;;7.15;71.91;99287.72;5051266;28;20137;-48
2022/04/11 02:47:15;;;;;;;2.83;2.47;;;;;;;7.42;71.32;99288.75;5051737;28;20028;-48
2022/04/11 02:49:41;;;;;;;3.50;2.55;;;;;;;7.50;71.00;99302.81;5051236;28;20036;-46
2022/04/11 02:52:06;;;;;;;2.83;2.40;;;;;;;7.62;71.17;99315.34;5051529;28;20020;-46
2022/04/11 02:54:32;;;;;;;2.95;2.65;;;;;;;7.41;71.25;99310.09;5051678;28;20051;-47
2022/04/11 02:56:57;;;;;;;3.88;2.65;;;;;;;7.59;71.60;99317.53;5051938;28;20516;-47
2022/04/11 02:59:23;;;;;;;4.60;2.38;;;;;;;7.93;70.14;99329.97;5051640;28;20016;-49
2022/04/11 03:01:49;;;;;;;3.25;2.47;;;;;;;7.86;69.82;99325.66;5051512;28;20017;-46
2022/04/11 03:04:16;;;;;;;3.40;2.55;;;;;;;8.00;70.78;99332.66;5051810;28;20029;-47
2022/04/11 03:06:41;;;;;;;3.42;2.50;;;;;;;7.97;71.21;99338.34;5051343;28;20025;-48
2022/04/11 03:09:08;;;;;;;3.60;2.58;;;;;;;7.89;71.51;99339.31;5050510;28;20248;-45
2022/04/11 03:11:34;;;;;;;3.92;2.72;;;;;;;7.99;70.86;99342.41;5050646;28;20025;-48
2022/04/11 03:13:59;;;;;;;3.53;2.95;;;;;;;8.06;71.86;99346.97;5050593;28;20036;-48
2022/04/11 03:16:25;;;;;;;3.78;2.90;;;;;;;7.96;71.93;99356.06;5050635;28;20036;-48
2022/04/11 03:18:50;;;;;;;3.40;2.75;;;;;;;7.85;72.42;99361.13;5050391;28;20484;-46
2022/04/11 03:21:16;;;;;;;4.13;2.70;;;;;;;7.76;71.78;99368.38;5050252;28;20024;-46
2022/04/11 03:23:41;;;;;;;3.47;2.83;;;;;;;7.81;71.42;99369.44;5050293;28;20035;-45
2022/04/11 03:26:07;;;;;;;3.33;2.50;;;;;;;7.60;72.40;99372.16;5050410;28;20025;-45
2022/04/11 03:28:32;;;;;;;3.70;2.50;;;;;;;7.56;72.39;99376.22;5050397;28;20424;-46
2022/04/11 03:30:59;;;;;;;4.22;2.70;;;;;;;7.69;73.52;99378.94;5050580;28;20029;-46
2022/04/11 03:33:24;;;;;;;4.65;2.90;;;;;;;7.77;73.70;99376.16;5050402;28;20025;-48
2022/04/11 03:35:50;;;;;;;5.47;3.20;;;;;;;7.65;74.21;99393.56;5050445;28;20021;-46
2022/04/11 03:38:16;;;;;;;16.75;9.65;;;;;;;7.63;72.49;99379.69;5050751;28;20070;-44
2022/04/11 03:40:41;;;;;;;9.82;5.13;;;;;;;7.64;73.14;99397.25;5050301;28;20094;-45
2022/04/11 03:43:07;;;;;;;5.57;3.80;;;;;;;7.67;72.75;99401.31;5049937;28;20369;-48
2022/04/11 03:45:32;;;;;;;4.07;2.67;;;;;;;7.85;72.93;99403.50;5050146;28;20028;-48
2022/04/11 03:47:58;;;;;;;3.55;2.45;;;;;;;7.65;72.56;99404.16;5050111;28;20033;-46
2022/04/11 03:50:23;;;;;;;3.92;2.63;;;;;;;7.66;73.47;99413.75;5050246;28;20130;-46
2022/04/11 03:52:49;;;;;;;4.22;2.75;;;;;;;7.71;73.57;99418.47;5049774;28;20036;-46
2022/04/11 03:55:15;;;;;;;3.53;2.53;;;;;;;7.61;73.39;99408.22;5048865;28;20223;-45
2022/04/11 03:57:40;;;;;;;3.75;3.00;;;;;;;7.49;74.65;99420.34;5050065;28;20087;-44
2022/04/11 04:00:06;;;;;;;3.65;2.72;;;;;;;7.55;74.25;99422.22;5049002;28;20338;-45
2022/04/11 04:02:31;;;;;;;4.07;2.70;;;;;;;7.53;73.97;99419.75;5034210;28;20420;-47
2022/04/11 04:04:57;;;;;;;3.47;2.60;;;;;;;7.54;74.30;99434.66;5049004;28;20528;-47
2022/04/11 04:07:22;;;;;;;3.83;2.70;;;;;;;7.52;74.48;99436.66;5007479;28;1211823;-46
2022/04/11 04:09:48;;;;;;;3.75;2.78;;;;;;;7.61;75.36;99438.16;5050421;28;20041;-45
2022/04/11 04:12:18;;;;;;;10.65;6.60;;;;;;;7.56;75.94;99432.63;5050792;28;20029;-45
2022/04/11 04:14:43;;;;;;;20.88;13.18;;;;;;;7.59;75.13;99440.16;5050398;28;20100;-47
2022/04/11 04:17:09;;;;;;;7.05;4.68;;;;;;;7.78;74.35;99448.47;5050288;28;20101;-45
2022/04/11 04:19:34;;;;;;;4.15;2.40;;;;;;;7.69;75.29;99457.56;5050584;28;20029;-45
2022/04/11 04:22:00;;;;;;;2.75;2.30;;;;;;;7.58;75.47;99464.22;5050411;28;20412;-48
2022/04/11 04:24:25;;;;;;;26.08;15.35;;;;;;;7.69;75.77;99463.72;5050114;28;20649;-48
2022/04/11 04:26:51;;;;;;;4.90;3.38;;;;;;;7.46;74.80;99471.84;5049975;28;20025;-46
2022/04/11 04:29:16;;;;;;;4.28;2.20;;;;;;;7.56;74.38;99468.91;5049634;28;20082;-45
2022/04/11 04:31:43;;;;;;;3.75;2.60;;;;;;;7.83;74.51;99483.16;5049973;28;20021;-46
2022/04/11 04:34:08;;;;;;;2.35;1.95;;;;;;;7.85;74.48;99483.78;5049344;28;20017;-46
2022/04/11 04:36:34;;;;;;;2.65;2.10;;;;;;;7.79;74.03;99477.44;5049080;28;20430;-45
2022/04/11 04:39:00;;;;;;;2.35;1.80;;;;;;;7.61;74.69;99492.94;5050147;28;20021;-46
2022/04/11 04:41:26;;;;;;;4.00;3.53;;;;;;;7.63;74.17;99486.47;5049176;28;20046;-44
2022/04/11 04:43:51;;;;;;;3.17;2.42;;;;;;;7.51;74.92;99493.28;5047377;28;20024;-45
2022/04/11 04:46:17;;;;;;;2.78;1.73;;;;;;;7.33;75.42;99499.03;5047697;28;20079;-45
2022/04/11 04:48:43;;;;;;;2.40;1.70;;;;;;;7.57;75.03;99500.47;5047452;28;20539;-46
2022/04/11 04:51:08;;;;;;;3.03;2.00;;;;;;;7.50;76.06;99509.34;5047048;28;20025;-45
2022/04/11 04:53:34;;;;;;;2.17;1.60;;;;;;;7.65;75.49;99515.41;5047141;28;20268;-48
2022/04/11 04:55:59;;;;;;;2.97;1.50;;;;;;;7.67;75.70;99509.91;5047384;28;20017;-47
2022/04/11 04:58:25;;;;;;;1.88;1.23;;;;;;;7.50;76.18;99514.66;5048003;28;20020;-46
2022/04/11 05:00:50;;;;;;;1.52;1.20;;;;;;;7.40;75.32;99522.91;5047991;28;20033;-48
2022/04/11 05:03:16;;;;;;;1.27;0.93;;;;;;;7.44;75.51;99529.47;5047859;28;20031;-46
2022/04/11 05:05:41;;;;;;;3.05;0.90;;;;;;;7.22;75.42;99533.91;5047806;28;20032;-47
2022/04/11 05:08:08;;;;;;;9.23;4.70;;;;;;;7.51;73.81;99537.47;5050373;28;20045;-49
2022/04/11 05:10:33;;;;;;;1.30;1.00;;;;;;;7.50;74.27;99539.31;5051444;28;20156;-48
2022/04/11 05:12:59;;;;;;;1.23;0.82;;;;;;;7.62;73.81;99532.50;5051450;28;20227;-47
2022/04/11 05:15:25;;;;;;;8.88;8.00;;;;;;;7.12;74.69;99536.03;5052509;28;20103;-48
2022/04/11 05:17:50;;;;;;;1.80;1.70;;;;;;;7.52;73.21;99531.16;5052414;28;20033;-49
2022/04/11 05:20:15;;;;;;;0.90;0.90;;;;;;;7.94;71.89;99538.28;5052738;28;20069;-46
2022/04/11 05:22:41;;;;;;;0.93;0.70;;;;;;;8.11;70.76;99532.69;5052577;28;20106;-47
2022/04/11 05:25:07;;;;;;;1.80;1.10;;;;;;;8.18;70.02;99531.72;5052981;28;20107;-48
2022/04/11 05:27:33;;;;;;;0.55;0.52;;;;;;;8.34;69.43;99535.09;5051330;28;20060;-48
2022/04/11 05:29:58;;;;;;;1.10;0.80;;;;;;;8.51;68.71;99531.19;5052086;28;20112;-49
2022/04/11 05:32:24;;;;;;;0.98;0.80;;;;;;;9.02;66.48;99537.94;5052350;28;20049;-48
2022/04/11 05:34:49;;;;;;;6.00;1.13;;;;;;;9.37;65.74;99540.53;5052341;28;20025;-47
2022/04/11 05:37:15;;;;;;;0.90;0.70;;;;;;;9.66;64.36;99539.34;5052009;28;20106;-48
2022/04/11 05:39:41;;;;;;;1.10;0.80;;;;;;;9.24;64.01;99536.00;5052395;28;20036;-47
2022/04/11 05:42:07;;;;;;;0.75;0.68;;;;;;;9.67;62.82;99540.16;5052828;28;20453;-48
2022/04/11 05:44:33;;;;;;;0.88;0.80;;;;;;;9.85;61.85;99540.41;5051611;28;20028;-50
2022/04/11 05:46:58;;;;;;;5.93;3.47;;;;;;;9.66;61.90;99539.34;5051886;28;20028;-48
2022/04/11 05:49:23;;;;;;;10.65;6.15;;;;;;;9.41;63.11;99546.25;5052309;28;20025;-50
2022/04/11 05:51:50;;;;;;;1.00;0.90;;;;;;;9.87;62.04;99545.50;5052197;28;20043;-49
2022/04/11 05:54:15;;;;;;;4.78;3.03;;;;;;;10.49;60.09;99540.78;5052153;28;20029;-52
2022/04/11 05:56:41;;;;;;;52.35;26.73;;;;;;;10.87;59.43;99545.38;5052021;28;20052;-50
2022/04/11 05:59:08;;;;;;;1.60;0.90;;;;;;;11.13;56.51;99544.47;5051651;28;20435;-48
2022/04/11 06:01:35;;;;;;;0.90;0.75;;;;;;;12.06;54.27;99532.44;5051584;28;20103;-48
2022/04/11 06:04:00;;;;;;;1.27;0.90;;;;;;;11.79;55.35;99529.94;5052130;28;20021;-50
2022/04/11 06:06:26;;;;;;;2.88;1.90;;;;;;;11.81;55.38;99529.75;5051911;28;20048;-48
2022/04/11 06:08:51;;;;;;;3.33;2.00;;;;;;;11.07;55.98;99540.00;5051703;28;20107;-51
2022/04/11 06:11:17;;;;;;;1.75;1.23;;;;;;;11.72;54.51;99529.19;5051518;28;20029;-49
2022/04/11 06:13:45;;;;;;;4.05;0.90;;;;;;;12.30;53.29;99541.47;5052109;28;20032;-49
2022/04/11 06:16:12;;;;;;;0.95;0.82;;;;;;;12.33;51.55;99549.03;5051899;28;20032;-49
2022/04/11 06:18:38;;;;;;;1.10;0.70;;;;;;;12.09;52.51;99543.50;5050904;28;20493;-49
2022/04/11 06:21:03;;;;;;;1.38;0.90;;;;;;;12.04;52.86;99551.31;5051713;28;20024;-48
2022/04/11 06:23:29;;;;;;;1.30;0.80;;;;;;;11.82;53.11;99544.69;5051355;28;20031;-49
2022/04/11 06:25:54;;;;;;;1.88;1.02;;;;;;;11.96;52.86;99556.94;5051735;28;20040;-48
2022/04/11 06:28:20;;;;;;;1.23;1.02;;;;;;;11.89;52.85;99564.97;5051496;28;20506;-51
2022/04/11 06:30:46;;;;;;;1.65;1.10;;;;;;;11.49;54.03;99551.88;5051421;28;20099;-49
2022/04/11 06:33:11;;;;;;;1.73;1.15;;;;;;;11.22;55.04;99566.38;5050997;28;20029;-48
2022/04/11 06:35:36;;;;;;;1.45;1.13;;;;;;;11.00;55.21;99585.28;5050193;28;20036;-50
2022/04/11 06:38:02;;;;;;;1.42;1.10;;;;;;;10.92;55.84;99570.34;5050963;28;20025;-47
2022/04/11 06:40:28;;;;;;;1.90;1.10;;;;;;;11.86;53.98;99584.06;5051081;28;20048;-51
2022/04/11 06:42:53;;;;;;;1.85;1.13;;;;;;;12.36;53.06;99583.28;5050682;28;20362;-50
2022/04/11 06:45:19;;;;;;;2.03;1.00;;;;;;;12.70;51.71;99581.13;5051225;28;20036;-49
2022/04/11 06:47:46;;;;;;;1.98;1.50;;;;;;;12.46;52.03;99596.13;5051011;28;20040;-48
2022/04/11 06:50:11;;;;;;;2.60;1.67;;;;;;;12.48;52.27;99573.50;5051171;28;20055;-49
2022/04/11 06:52:37;;;;;;;2.08;1.48;;;;;;;12.76;51.57;99593.56;5051359;28;20080;-49
2022/04/11 06:55:03;;;;;;;1.40;1.10;;;;;;;12.50;51.65;99597.31;5050572;28;20459;-48
2022/04/11 06:57:29;;;;;;;1.50;1.23;;;;;;;11.93;51.81;99586.69;5050721;28;20036;-48
2022/04/11 06:59:54;;;;;;;1.65;1.30;;;;;;;12.28;51.35;99610.22;5051169;28;20028;-52
2022/04/11 07:02:21;;;;;;;2.80;1.10;;;;;;;12.11;51.02;99613.44;5050715;28;20029;-48
2022/04/11 07:04:47;;;;;;;1.27;0.85;;;;;;;11.76;50.84;99626.34;5050271;28;20020;-50
2022/04/11 07:07:12;;;;;;;1.40;1.00;;;;;;;12.18;51.14;99624.03;5050607;28;20037;-50
2022/04/11 07:09:38;;;;;;;1.88;1.10;;;;;;;12.40;49.58;99624.50;5050483;28;20052;-51
2022/04/11 07:12:04;;;;;;;1.20;0.90;;;;;;;11.83;50.86;99634.31;5050879;28;20016;-50
2022/04/11 07:14:29;;;;;;;1.77;1.38;;;;;;;11.79;50.95;99644.59;5050369;28;20055;-48
2022/04/11 07:16:55;;;;;;;3.67;1.30;;;;;;;11.51;51.64;99639.59;5050211;28;20488;-49
2022/04/11 07:19:20;;;;;;;3.28;1.42;;;;;;;12.01;51.25;99645.09;5050223;28;20025;-49
2022/04/11 07:21:47;;;;;;;1.35;1.10;;;;;;;12.26;50.12;99649.63;5050653;28;20108;-51
2022/04/11 07:24:13;;;;;;;4.88;1.50;;;;;;;12.26;51.45;99657.66;5049229;28;20040;-48
2022/04/11 07:26:40;;;;;;;2.65;1.40;;;;;;;11.39;51.55;99667.94;5050586;28;20406;-51
2022/04/11 07:29:06;;;;;;;2.63;1.20;;;;;;;11.25;51.82;99676.00;5049964;28;20508;-51
2022/04/11 07:31:31;;;;;;;1.20;1.00;;;;;;;11.09;53.27;99671.91;5050236;28;20025;-50
2022/04/11 07:33:57;;;;;;;1.52;1.30;;;;;;;10.60;55.26;99665.22;5050295;28;20086;-51
2022/04/11 07:36:22;;;;;;;3.72;1.23;;;;;;;10.87;54.34;99671.34;5049805;28;20555;-49
2022/04/11 07:38:48;;;;;;;2.28;1.42;;;;;;;11.02;54.15;99680.94;5050154;28;20536;-52
2022/04/11 07:41:13;;;;;;;1.25;0.90;;;;;;;10.62;54.18;99684.44;5050212;28;20020;-51
2022/04/11 07:43:39;;;;;;;3.80;1.67;;;;;;;10.59;52.69;99682.22;5050085;28;20035;-52
2022/04/11 07:46:05;;;;;;;2.95;1.88;;;;;;;10.52;52.00;99682.19;5049726;28;20083;-52
2022/04/11 07:48:32;;;;;;;2.55;1.83;;;;;;;10.58;51.30;99680.56;5049645;28;20108;-50
2022/04/11 07:50:58;;;;;;;1.50;1.10;;;;;;;10.55;51.87;99702.28;5050251;28;20067;-50
2022/04/11 07:53:23;;;;;;;1.98;1.20;;;;;;;10.55;52.14;99697.78;5049942;28;20468;-52
2022/04/11 07:55:49;;;;;;;1.92;1.00;;;;;;;10.43;52.47;99696.72;5049686;28;20416;-51
2022/04/11 07:58:16;;;;;;;2.95;1.20;;;;;;;10.23;53.50;99707.31;5049590;28;20021;-49
2022/04/11 08:00:42;;;;;;;1.17;1.08;;;;;;;10.43;52.87;99701.22;5050292;28;20032;-50
2022/04/11 08:03:08;;;;;;;1.85;1.60;;;;;;;10.33;53.13;99717.59;5050660;28;20037;-52
2022/04/11 08:05:33;;;;;;;3.70;1.80;;;;;;;9.99;53.04;99708.69;5049980;28;20500;-51
2022/04/11 08:07:59;;;;;;;2.88;1.70;;;;;;;10.19;53.86;99716.72;5050479;28;20072;-51
2022/04/11 08:10:25;;;;;;;4.40;1.80;;;;;;;10.14;53.63;99722.63;5049801;28;20544;-50
2022/04/11 08:12:55;;;;;;;1.85;1.67;;;;;;;10.12;55.13;99718.53;5050192;28;20017;-51
2022/04/11 08:15:21;;;;;;;;;;;;;;;10.11;54.21;99724.88;5050021;28;20021;-49
2022/04/11 08:17:47;;;;;;;1.92;1.40;;;;;;;10.29;53.39;99719.81;5049651;28;19912;-50
2022/04/11 08:20:12;;;;;;;2.00;1.63;;;;;;;10.62;53.10;99721.72;5046915;28;20017;-51
2022/04/11 08:22:38;;;;;;;4.43;1.90;;;;;;;10.63;52.96;99731.34;5048176;28;20029;-51
2022/04/11 08:25:04;;;;;;;2.58;2.00;;;;;;;10.51;54.02;99717.84;5049673;28;20105;-48
2022/04/11 08:27:29;;;;;;;9.93;4.70;;;;;;;11.03;53.55;99731.34;5049398;28;20017;-48
2022/04/11 08:29:54;;;;;;;1.95;1.40;;;;;;;10.73;52.89;99728.28;5049279;28;20048;-48
2022/04/11 08:32:20;;;;;;;5.13;1.58;;;;;;;10.60;52.92;99725.59;5049412;28;20052;-50
2022/04/11 08:34:45;;;;;;;3.58;1.50;;;;;;;10.92;52.61;99739.94;5049118;28;20057;-51
2022/04/11 08:37:11;;;;;;;1.88;1.40;;;;;;;11.15;52.06;99723.53;5048996;28;20086;-48
2022/04/11 08:39:37;;;;;;;1.35;1.17;;;;;;;11.21;50.42;99740.53;5048245;28;20053;-52
2022/04/11 08:42:03;;;;;;;2.85;1.50;;;;;;;11.04;51.47;99742.78;5050969;28;20028;-51
2022/04/11 08:44:32;;;;;;;3.05;1.60;;;;;;;10.90;50.99;99734.00;5052969;28;20162;-49
2022/04/11 08:47:02;;;;;;;3.30;2.03;;;;;;;11.08;51.21;99738.69;5052108;28;20425;-50
2022/04/11 08:49:29;;;;;;;4.65;2.22;;;;;;;11.57;50.66;99741.88;5048693;28;20029;-50
2022/04/11 08:51:54;;;;;;;5.15;2.70;;;;;;;11.72;49.91;99761.09;5052313;28;20040;-50
2022/04/11 08:54:20;;;;;;;3.13;2.50;;;;;;;11.09;50.80;99751.00;5052863;28;20477;-51
2022/04/11 08:56:46;;;;;;;5.20;2.80;;;;;;;11.27;51.23;99753.84;5052564;28;20033;-49
2022/04/11 08:59:11;;;;;;;2.80;1.90;;;;;;;11.08;49.89;99762.66;5052625;28;20028;-49
2022/04/11 09:01:37;;;;;;;3.38;2.50;;;;;;;11.15;50.59;99760.81;5052439;28;20047;-49
2022/04/11 09:04:02;;;;;;;3.97;1.85;;;;;;;11.59;48.81;99764.63;5052706;28;20028;-49
2022/04/11 09:06:32;;;;;;;3.85;1.77;;;;;;;11.53;48.29;99766.28;5052756;28;20033;-50
2022/04/11 09:08:58;;;;;;;;;;;;;;;11.50;48.34;99768.56;5052948;28;20119;-51
2022/04/11 09:11:31;;;;;;;2.88;1.88;;;;;;;11.29;47.78;99773.09;5052758;28;20340;-48
2022/04/11 09:14:00;;;;;;;3.47;1.90;;;;;;;11.51;47.32;99780.84;5052225;28;20108;-51
2022/04/11 09:16:26;;;;;;;3.50;1.67;;;;;;;11.52;47.76;99771.84;5052563;28;20562;-51
2022/04/11 09:18:54;;;;;;;2.65;1.98;;;;;;;11.24;48.11;99775.56;5052544;28;20044;-49
2022/04/11 09:21:22;;;;;;;3.53;1.80;;;;;;;11.30;49.29;99789.91;5052789;28;20021;-51
2022/04/11 09:23:48;;;;;;;3.88;1.85;;;;;;;11.30;48.04;99780.06;5052483;28;20100;-49
2022/04/11 09:26:22;;;;;;;2.15;1.92;;;;;;;11.32;48.97;99793.97;5052388;28;20502;-50
2022/04/11 09:29:03;;;;;;;2.15;1.95;;;;;;;11.22;47.68;99801.59;5052435;28;20029;-48
2022/04/11 09:31:29;;;;;;;2.92;2.10;;;;;;;11.26;47.40;99802.81;5053015;28;20033;-52
2022/04/11 09:33:55;;;;;;;4.63;2.55;;;;;;;11.24;47.21;99799.53;5052099;28;20469;-50
2022/04/11 09:36:21;;;;;;;4.53;2.40;;;;;;;11.12;47.43;99812.66;5051433;28;20021;-48
2022/04/11 09:39:01;;;;;;;3.30;2.30;;;;;;;11.23;47.44;99808.56;5051399;28;20392;-51
2022/04/11 09:41:29;;;;;;;4.22;2.60;;;;;;;11.49;46.75;99820.22;5051771;28;20511;-49
2022/04/11 09:43:56;;;;;;;3.33;2.38;;;;;;;11.15;47.41;99820.22;5050591;28;20056;-49
2022/04/11 09:46:22;;;;;;;5.53;2.83;;;;;;;10.77;48.21;99825.31;5051207;28;20087;-49
2022/04/11 09:48:52;;;;;;;4.57;2.50;;;;;;;10.88;47.91;99835.38;5052121;28;20187;-49
2022/04/11 09:51:17;;;;;;;5.22;2.50;;;;;;;10.84;48.15;99822.69;5052128;28;20033;-50
2022/04/11 09:53:45;;;;;;;4.03;2.50;;;;;;;11.37;47.17;99836.00;5051946;28;20104;-48
2022/04/11 09:56:10;;;;;;;3.13;2.30;;;;;;;11.05;46.01;99832.31;5050890;28;20037;-50
2022/04/11 09:58:38;;;;;;;3.58;2.33;;;;;;;11.12;47.11;99847.28;5050096;28;20036;-48
2022/04/11 10:01:06;;;;;;;4.30;2.72;;;;;;;11.25;47.28;99850.97;5049808;28;20048;-49
2022/04/11 10:03:31;;;;;;;3.22;2.50;;;;;;;11.20;47.46;99842.78;5049924;28;20036;-52
2022/04/11 10:05:58;;;;;;;3.20;2.60;;;;;;;11.19;47.22;99841.13;5049259;28;20033;-52
2022/04/11 10:08:25;;;;;;;4.18;2.40;;;;;;;11.24;47.08;99854.66;5049597;28;20147;-48
2022/04/11 10:10:52;;;;;;;4.03;2.50;;;;;;;11.49;46.66;99850.34;5049895;28;20476;-49
2022/04/11 10:13:18;;;;;;;3.95;2.50;;;;;;;11.05;47.72;99846.44;5051609;28;20631;-49
2022/04/11 10:15:51;;;;;;;3.20;2.50;;;;;;;11.19;47.46;99852.59;5051029;28;20029;-50
2022/04/11 10:18:27;;;;;;;4.00;2.70;;;;;;;11.17;48.01;99856.50;5051263;28;20077;-51
2022/04/11 10:20:57;;;;;;;4.20;2.60;;;;;;;10.92;47.59;99851.75;5051701;28;20027;-50
2022/04/11 10:24:06;;;;;;;3.83;2.63;;;;;;;10.88;48.06;99851.34;5051748;28;20025;-52
2022/04/11 10:26:46;;;;;;;4.40;2.55;;;;;;;11.33;47.76;99853.44;5031274;28;20025;-49
2022/04/11 10:29:30;;;;;;;4.20;2.90;;;;;;;11.17;48.03;99859.97;5051309;28;20021;-49
2022/04/11 10:32:11;;;;;;;4.88;2.60;;;;;;;11.24;46.95;99860.81;5051115;28;20021;-48
2022/04/11 10:34:45;;;;;;;6.00;3.20;;;;;;;11.59;46.54;99860.56;5051318;28;20475;-49
2022/04/11 10:37:11;;;;;;;6.45;2.97;;;;;;;11.53;45.90;99856.88;5051088;28;20032;-48
2022/04/11 10:39:37;;;;;;;4.15;2.75;;;;;;;11.69;45.29;99852.13;5051054;28;20025;-50
2022/04/11 10:42:05;;;;;;;6.30;3.10;;;;;;;11.60;46.03;99856.06;5050992;28;20404;-49
2022/04/11 10:44:32;;;;;;;4.57;2.90;;;;;;;11.68;46.42;99855.84;5050867;28;20640;-51
2022/04/11 10:47:12;;;;;;;4.82;2.80;;;;;;;12.03;45.31;99859.09;5051033;28;20069;-47
2022/04/11 10:49:49;;;;;;;;;;;;;;;12.25;45.75;99856.13;5050973;28;20500;-52
2022/04/11 10:52:33;;;;;;;5.68;3.10;;;;;;;12.23;45.84;99858.19;5050860;28;19909;-51
2022/04/11 10:55:18;;;;;;;3.72;2.78;;;;;;;12.46;44.66;99847.00;5051440;28;20033;-48
2022/04/11 10:57:55;;;;;;;4.60;2.80;;;;;;;12.55;43.92;99840.38;5050497;28;20033;-52
2022/04/11 11:00:22;;;;;;;3.00;2.50;;;;;;;12.95;42.40;99837.47;5050323;28;20025;-51
2022/04/11 11:02:48;;;;;;;5.53;2.60;;;;;;;12.65;43.58;99839.91;5050977;28;20135;-51
2022/04/11 11:05:27;;;;;;;6.20;3.08;;;;;;;12.94;41.63;99835.81;5050343;28;20032;-51
2022/04/11 11:08:09;;;;;;;3.38;2.78;;;;;;;12.89;42.17;99835.66;5050658;28;20132;-49
2022/04/11 11:10:44;;;;;;;5.22;2.97;;;;;;;13.24;42.24;99835.19;5050522;28;20472;-49
2022/04/11 11:13:34;;;;;;;4.78;3.05;;;;;;;13.13;40.65;99836.69;5051163;28;20043;-51
2022/04/11 11:16:00;;;;;;;4.40;2.80;;;;;;;13.07;41.97;99826.88;5050627;28;20025;-48
2022/04/11 11:18:27;;;;;;;5.75;3.03;;;;;;;13.32;43.11;99832.25;5050448;28;20079;-49
2022/04/11 11:20:57;;;;;;;7.43;3.00;;;;;;;13.30;42.32;99827.13;5050231;28;20033;-48
2022/04/11 11:23:31;;;;;;;5.47;2.70;;;;;;;13.76;41.72;99824.22;5050363;28;20124;-50
2022/04/11 11:26:07;;;;;;;6.13;2.90;;;;;;;14.16;38.70;99813.88;5050310;28;20057;-51
2022/04/11 11:28:33;;;;;;;4.13;2.88;;;;;;;13.96;38.58;99811.44;5050828;28;20035;-49
2022/04/11 11:30:59;;;;;;;4.90;2.45;;;;;;;14.07;37.94;99821.41;5050656;28;20037;-49
2022/04/11 11:33:26;;;;;;;4.68;2.78;;;;;;;13.92;35.93;99802.25;5050191;28;20028;-52
2022/04/11 11:35:54;;;;;;;4.68;2.90;;;;;;;13.80;36.29;99804.84;5050168;28;20056;-49
2022/04/11 11:38:25;;;;;;;3.03;2.40;;;;;;;13.94;35.95;99807.38;5050233;28;20506;-49